createdAt,value
2023-03-02T00:00:16.015Z,2.00
2023-03-02T00:03:18.159Z,1.90
2023-03-02T00:06:19.925Z,2.10
2023-03-02T00:09:21.521Z,1.80
2023-03-02T00:12:23.402Z,1.88
2023-03-02T00:15:24.981Z,1.80
2023-03-02T00:18:26.454Z,1.80
2023-03-02T00:21:28.044Z,2.10
2023-03-02T00:24:29.534Z,2.40
2023-03-02T00:27:31.076Z,2.00
2023-03-02T00:30:32.561Z,1.90
2023-03-02T00:33:34.652Z,2.10
2023-03-02T00:36:36.192Z,2.13
2023-03-02T00:39:37.740Z,2.00
2023-03-02T00:42:39.352Z,1.80
2023-03-02T00:45:40.886Z,2.15
2023-03-02T00:48:43.231Z,1.83
2023-03-02T00:51:44.697Z,1.70
2023-03-02T00:54:46.212Z,1.85
2023-03-02T00:57:55.049Z,2.08
2023-03-02T01:01:07.638Z,1.88
2023-03-02T01:04:11.461Z,2.22
2023-03-02T08:08:39.478Z,2.22
2023-03-02T08:11:41.868Z,2.30
2023-03-02T08:14:43.500Z,2.35
2023-03-02T08:17:45.064Z,3.75
2023-03-02T08:20:46.620Z,85.78
2023-03-02T08:23:48.871Z,66.47
2023-03-02T08:26:50.438Z,61.85
2023-03-02T08:29:53.890Z,62.63
2023-03-02T08:32:55.414Z,60.63
2023-03-02T08:36:02.830Z,56.88
2023-03-02T08:39:04.573Z,57.35
2023-03-02T08:42:06.075Z,54.15
2023-03-02T08:45:08.252Z,51.47
2023-03-02T08:48:09.804Z,52.05
2023-03-02T08:51:17.117Z,50.85
2023-03-02T08:54:19.646Z,50.78
2023-03-02T08:57:21.466Z,49.70
2023-03-02T09:00:23.112Z,46.63
2023-03-02T09:03:25.448Z,44.97
2023-03-02T09:06:28.861Z,44.10
2023-03-02T09:09:30.359Z,43.47
2023-03-02T09:12:31.911Z,44.00
2023-03-02T09:15:33.513Z,40.97
2023-03-02T09:18:35.614Z,41.65
2023-03-02T09:21:37.088Z,40.30
2023-03-02T09:24:38.560Z,39.28
2023-03-02T09:27:40.196Z,38.97
2023-03-02T09:30:41.887Z,37.53
2023-03-02T09:33:43.460Z,36.25
2023-03-02T09:36:45.938Z,36.40
2023-03-02T09:39:47.458Z,35.90
2023-03-02T09:42:58.046Z,34.33
2023-03-02T09:46:20.880Z,35.25
2023-03-02T09:49:44.266Z,34.63
2023-03-02T09:52:55.661Z,33.83
2023-03-02T09:56:01.696Z,33.08
2023-03-02T09:59:17.966Z,34.40
2023-03-02T10:02:27.263Z,32.55
2023-03-02T10:05:36.231Z,31.52
2023-03-02T10:08:39.108Z,31.17
2023-03-02T10:12:08.081Z,30.85
